sensor_id;sensor_type;location;lat;lon;timestamp;temperature;humidity
66035;HTU21D;52805;51.074;5.842;2023-11-21T00:01:20;10.25;118.99
66035;HTU21D;52805;51.074;5.842;2023-11-21T00:03:46;10.24;118.99
66035;HTU21D;52805;51.074;5.842;2023-11-21T00:06:12;10.25;118.99
66035;HTU21D;52805;51.074;5.842;2023-11-21T00:08:37;10.27;118.99
66035;HTU21D;52805;51.074;5.842;2023-11-21T00:11:03;10.27;118.99
66035;HTU21D;52805;51.074;5.842;2023-11-21T00:13:31;10.28;118.99
66035;HTU21D;52805;51.074;5.842;2023-11-21T00:15:58;10.29;118.99
66035;HTU21D;52805;51.074;5.842;2023-11-21T00:18:24;10.30;118.99
66035;HTU21D;52805;51.074;5.842;2023-11-21T00:20:50;10.31;118.99
66035;HTU21D;52805;51.074;5.842;2023-11-21T00:23:15;10.31;118.99
66035;HTU21D;52805;51.074;5.842;2023-11-21T00:25:41;10.33;118.99
66035;HTU21D;52805;51.074;5.842;2023-11-21T00:28:07;10.34;118.99
66035;HTU21D;52805;51.074;5.842;2023-11-21T00:30:32;10.36;118.99
66035;HTU21D;52805;51.074;5.842;2023-11-21T00:32:58;10.36;118.99
66035;HTU21D;52805;51.074;5.842;2023-11-21T00:35:25;10.36;118.99
66035;HTU21D;52805;51.074;5.842;2023-11-21T00:37:51;10.37;118.99
66035;HTU21D;52805;51.074;5.842;2023-11-21T00:40:16;10.37;118.99
66035;HTU21D;52805;51.074;5.842;2023-11-21T00:42:45;10.40;118.99
66035;HTU21D;52805;51.074;5.842;2023-11-21T00:45:11;10.40;118.99
66035;HTU21D;52805;51.074;5.842;2023-11-21T00:47:37;10.41;118.99
66035;HTU21D;52805;51.074;5.842;2023-11-21T00:50:04;10.42;118.99
66035;HTU21D;52805;51.074;5.842;2023-11-21T00:52:32;10.44;118.99
66035;HTU21D;52805;51.074;5.842;2023-11-21T00:54:58;10.45;118.99
66035;HTU21D;52805;51.074;5.842;2023-11-21T00:57:28;10.45;118.99
66035;HTU21D;52805;51.074;5.842;2023-11-21T00:59:55;10.46;118.99
66035;HTU21D;52805;51.074;5.842;2023-11-21T01:02:20;10.49;118.99
66035;HTU21D;52805;51.074;5.842;2023-11-21T01:04:46;10.49;118.99
66035;HTU21D;52805;51.074;5.842;2023-11-21T01:07:13;10.48;118.99
66035;HTU21D;52805;51.074;5.842;2023-11-21T01:09:39;10.48;118.99
66035;HTU21D;52805;51.074;5.842;2023-11-21T01:12:05;10.46;118.99
66035;HTU21D;52805;51.074;5.842;2023-11-21T01:14:33;10.48;118.99
66035;HTU21D;52805;51.074;5.842;2023-11-21T01:17:00;10.50;118.99
66035;HTU21D;52805;51.074;5.842;2023-11-21T01:19:26;10.51;118.99
66035;HTU21D;52805;51.074;5.842;2023-11-21T01:21:51;10.50;118.99
66035;HTU21D;52805;51.074;5.842;2023-11-21T01:24:18;10.50;118.99
66035;HTU21D;52805;51.074;5.842;2023-11-21T01:26:44;10.51;118.99
66035;HTU21D;52805;51.074;5.842;2023-11-21T01:29:12;10.50;118.99
66035;HTU21D;52805;51.074;5.842;2023-11-21T01:31:38;10.51;118.99
66035;HTU21D;52805;51.074;5.842;2023-11-21T01:34:03;10.50;118.99
66035;HTU21D;52805;51.074;5.842;2023-11-21T01:36:31;10.51;118.99
66035;HTU21D;52805;51.074;5.842;2023-11-21T01:39:00;10.49;118.99
66035;HTU21D;52805;51.074;5.842;2023-11-21T01:41:26;10.48;118.99
66035;HTU21D;52805;51.074;5.842;2023-11-21T01:43:52;10.49;118.99
66035;HTU21D;52805;51.074;5.842;2023-11-21T01:46:20;10.52;118.99
66035;HTU21D;52805;51.074;5.842;2023-11-21T01:48:48;10.49;118.99
66035;HTU21D;52805;51.074;5.842;2023-11-21T01:51:16;10.48;118.99
66035;HTU21D;52805;51.074;5.842;2023-11-21T01:53:42;10.45;118.99
66035;HTU21D;52805;51.074;5.842;2023-11-21T01:56:09;10.45;118.99
66035;HTU21D;52805;51.074;5.842;2023-11-21T01:58:36;10.44;118.99
66035;HTU21D;52805;51.074;5.842;2023-11-21T02:01:02;10.45;118.99
66035;HTU21D;52805;51.074;5.842;2023-11-21T02:03:28;10.44;118.99
66035;HTU21D;52805;51.074;5.842;2023-11-21T02:05:53;10.45;118.99
66035;HTU21D;52805;51.074;5.842;2023-11-21T02:08:19;10.43;118.99
66035;HTU21D;52805;51.074;5.842;2023-11-21T02:10:45;10.44;118.99
66035;HTU21D;52805;51.074;5.842;2023-11-21T02:13:11;10.45;118.99
66035;HTU21D;52805;51.074;5.842;2023-11-21T02:15:38;10.46;118.99
66035;HTU21D;52805;51.074;5.842;2023-11-21T02:18:04;10.48;118.99
66035;HTU21D;52805;51.074;5.842;2023-11-21T02:20:31;10.48;118.99
66035;HTU21D;52805;51.074;5.842;2023-11-21T02:23:00;10.49;118.99
66035;HTU21D;52805;51.074;5.842;2023-11-21T02:25:29;10.50;118.99
66035;HTU21D;52805;51.074;5.842;2023-11-21T02:27:56;10.51;118.99
66035;HTU21D;52805;51.074;5.842;2023-11-21T02:30:23;10.52;118.99
66035;HTU21D;52805;51.074;5.842;2023-11-21T02:32:52;10.53;118.99
66035;HTU21D;52805;51.074;5.842;2023-11-21T02:35:19;10.52;118.99
66035;HTU21D;52805;51.074;5.842;2023-11-21T02:37:48;10.52;118.99
66035;HTU21D;52805;51.074;5.842;2023-11-21T02:40:14;10.51;118.99
66035;HTU21D;52805;51.074;5.842;2023-11-21T02:42:49;10.51;118.99
66035;HTU21D;52805;51.074;5.842;2023-11-21T02:45:22;10.49;118.99
66035;HTU21D;52805;51.074;5.842;2023-11-21T02:47:50;10.48;118.99
66035;HTU21D;52805;51.074;5.842;2023-11-21T02:50:16;10.46;118.99
66035;HTU21D;52805;51.074;5.842;2023-11-21T02:52:42;10.45;118.99
66035;HTU21D;52805;51.074;5.842;2023-11-21T02:55:08;10.44;118.99
66035;HTU21D;52805;51.074;5.842;2023-11-21T02:57:34;10.43;118.99
66035;HTU21D;52805;51.074;5.842;2023-11-21T02:59:59;10.43;118.99
66035;HTU21D;52805;51.074;5.842;2023-11-21T03:02:25;10.42;118.99
66035;HTU21D;52805;51.074;5.842;2023-11-21T03:04:52;10.45;118.99
66035;HTU21D;52805;51.074;5.842;2023-11-21T03:07:18;10.45;118.99
66035;HTU21D;52805;51.074;5.842;2023-11-21T03:09:45;10.46;118.99
66035;HTU21D;52805;51.074;5.842;2023-11-21T03:12:11;10.48;118.99
66035;HTU21D;52805;51.074;5.842;2023-11-21T03:14:41;10.48;118.99
66035;HTU21D;52805;51.074;5.842;2023-11-21T03:17:07;10.49;118.99
66035;HTU21D;52805;51.074;5.842;2023-11-21T03:19:33;10.49;118.99
66035;HTU21D;52805;51.074;5.842;2023-11-21T03:21:58;10.50;118.99
66035;HTU21D;52805;51.074;5.842;2023-11-21T03:24:24;10.49;118.99
66035;HTU21D;52805;51.074;5.842;2023-11-21T03:26:50;10.51;118.99
66035;HTU21D;52805;51.074;5.842;2023-11-21T03:29:17;10.52;118.99
66035;HTU21D;52805;51.074;5.842;2023-11-21T03:31:43;10.51;118.99
66035;HTU21D;52805;51.074;5.842;2023-11-21T03:34:20;10.53;118.99
66035;HTU21D;52805;51.074;5.842;2023-11-21T03:36:45;10.54;118.99
66035;HTU21D;52805;51.074;5.842;2023-11-21T03:39:12;10.55;118.99
66035;HTU21D;52805;51.074;5.842;2023-11-21T03:41:38;10.54;118.99
66035;HTU21D;52805;51.074;5.842;2023-11-21T03:44:04;10.54;118.99
66035;HTU21D;52805;51.074;5.842;2023-11-21T03:46:29;10.58;118.99
66035;HTU21D;52805;51.074;5.842;2023-11-21T03:48:55;10.56;118.99
66035;HTU21D;52805;51.074;5.842;2023-11-21T03:51:21;10.58;118.99
66035;HTU21D;52805;51.074;5.842;2023-11-21T03:53:47;10.59;118.99
66035;HTU21D;52805;51.074;5.842;2023-11-21T03:56:13;10.60;118.99
66035;HTU21D;52805;51.074;5.842;2023-11-21T03:58:39;10.62;118.99
66035;HTU21D;52805;51.074;5.842;2023-11-21T04:01:05;10.63;118.99
66035;HTU21D;52805;51.074;5.842;2023-11-21T04:03:31;10.64;118.99
66035;HTU21D;52805;51.074;5.842;2023-11-21T04:05:57;10.65;118.99
66035;HTU21D;52805;51.074;5.842;2023-11-21T04:08:22;10.66;118.99
66035;HTU21D;52805;51.074;5.842;2023-11-21T04:10:48;10.67;118.99
66035;HTU21D;52805;51.074;5.842;2023-11-21T04:13:14;10.66;118.99
66035;HTU21D;52805;51.074;5.842;2023-11-21T04:15:39;10.67;118.99
66035;HTU21D;52805;51.074;5.842;2023-11-21T04:18:05;10.67;118.99
66035;HTU21D;52805;51.074;5.842;2023-11-21T04:20:31;10.67;118.99
66035;HTU21D;52805;51.074;5.842;2023-11-21T04:22:57;10.67;118.99
66035;HTU21D;52805;51.074;5.842;2023-11-21T04:25:23;10.68;118.99
66035;HTU21D;52805;51.074;5.842;2023-11-21T04:27:49;10.68;118.99
66035;HTU21D;52805;51.074;5.842;2023-11-21T04:30:15;10.67;118.99
66035;HTU21D;52805;51.074;5.842;2023-11-21T04:32:40;10.68;118.99
66035;HTU21D;52805;51.074;5.842;2023-11-21T04:35:07;10.69;118.99
66035;HTU21D;52805;51.074;5.842;2023-11-21T04:37:37;10.68;118.99
66035;HTU21D;52805;51.074;5.842;2023-11-21T04:40:03;10.69;118.99
66035;HTU21D;52805;51.074;5.842;2023-11-21T04:42:35;10.70;118.99
66035;HTU21D;52805;51.074;5.842;2023-11-21T04:45:02;10.71;118.99
66035;HTU21D;52805;51.074;5.842;2023-11-21T04:47:32;10.69;118.99
66035;HTU21D;52805;51.074;5.842;2023-11-21T04:49:58;10.69;118.99
66035;HTU21D;52805;51.074;5.842;2023-11-21T04:52:24;10.69;118.99
66035;HTU21D;52805;51.074;5.842;2023-11-21T04:54:49;10.67;118.99
66035;HTU21D;52805;51.074;5.842;2023-11-21T04:57:15;10.64;118.99
66035;HTU21D;52805;51.074;5.842;2023-11-21T04:59:43;10.60;118.99
66035;HTU21D;52805;51.074;5.842;2023-11-21T05:02:09;10.59;118.99
66035;HTU21D;52805;51.074;5.842;2023-11-21T05:04:34;10.60;118.99
66035;HTU21D;52805;51.074;5.842;2023-11-21T05:07:00;10.59;118.99
66035;HTU21D;52805;51.074;5.842;2023-11-21T05:09:26;10.60;118.99
66035;HTU21D;52805;51.074;5.842;2023-11-21T05:11:54;10.55;118.99
66035;HTU21D;52805;51.074;5.842;2023-11-21T05:14:20;10.55;118.99
66035;HTU21D;52805;51.074;5.842;2023-11-21T05:16:46;10.54;118.99
66035;HTU21D;52805;51.074;5.842;2023-11-21T05:19:11;10.55;118.99
66035;HTU21D;52805;51.074;5.842;2023-11-21T05:21:38;10.54;118.99
66035;HTU21D;52805;51.074;5.842;2023-11-21T05:24:04;10.52;118.99
66035;HTU21D;52805;51.074;5.842;2023-11-21T05:26:31;10.52;118.99
66035;HTU21D;52805;51.074;5.842;2023-11-21T05:28:56;10.52;118.99
66035;HTU21D;52805;51.074;5.842;2023-11-21T05:31:22;10.53;118.99
66035;HTU21D;52805;51.074;5.842;2023-11-21T05:33:48;10.54;118.99
66035;HTU21D;52805;51.074;5.842;2023-11-21T05:36:13;10.55;118.99
66035;HTU21D;52805;51.074;5.842;2023-11-21T05:38:39;10.58;118.99
66035;HTU21D;52805;51.074;5.842;2023-11-21T05:41:05;10.57;118.99
66035;HTU21D;52805;51.074;5.842;2023-11-21T05:43:30;10.56;118.99
66035;HTU21D;52805;51.074;5.842;2023-11-21T05:45:57;10.59;118.99
66035;HTU21D;52805;51.074;5.842;2023-11-21T05:48:23;10.63;118.99
66035;HTU21D;52805;51.074;5.842;2023-11-21T05:50:49;10.65;118.99
66035;HTU21D;52805;51.074;5.842;2023-11-21T05:53:15;10.65;118.99
66035;HTU21D;52805;51.074;5.842;2023-11-21T05:55:42;10.64;118.99
66035;HTU21D;52805;51.074;5.842;2023-11-21T05:58:08;10.63;118.99
66035;HTU21D;52805;51.074;5.842;2023-11-21T06:00:34;10.64;118.99
66035;HTU21D;52805;51.074;5.842;2023-11-21T06:03:00;10.64;118.99
66035;HTU21D;52805;51.074;5.842;2023-11-21T06:05:26;10.63;118.99
66035;HTU21D;52805;51.074;5.842;2023-11-21T06:07:56;10.65;118.99
66035;HTU21D;52805;51.074;5.842;2023-11-21T06:10:25;10.64;118.99
66035;HTU21D;52805;51.074;5.842;2023-11-21T06:12:51;10.66;118.99
66035;HTU21D;52805;51.074;5.842;2023-11-21T06:15:17;10.66;118.99
66035;HTU21D;52805;51.074;5.842;2023-11-21T06:17:44;10.64;118.99
66035;HTU21D;52805;51.074;5.842;2023-11-21T06:20:18;10.64;118.99
66035;HTU21D;52805;51.074;5.842;2023-11-21T06:22:45;10.63;118.99
66035;HTU21D;52805;51.074;5.842;2023-11-21T06:25:13;10.62;118.99
66035;HTU21D;52805;51.074;5.842;2023-11-21T06:27:41;10.63;118.99
66035;HTU21D;52805;51.074;5.842;2023-11-21T06:30:07;10.63;118.99
66035;HTU21D;52805;51.074;5.842;2023-11-21T06:32:38;10.64;118.99
66035;HTU21D;52805;51.074;5.842;2023-11-21T06:35:07;10.64;118.99
66035;HTU21D;52805;51.074;5.842;2023-11-21T06:37:37;10.65;118.99
66035;HTU21D;52805;51.074;5.842;2023-11-21T06:40:04;10.66;118.99
66035;HTU21D;52805;51.074;5.842;2023-11-21T06:42:30;10.66;118.99
66035;HTU21D;52805;51.074;5.842;2023-11-21T06:44:56;10.67;118.99
66035;HTU21D;52805;51.074;5.842;2023-11-21T06:47:25;10.69;118.99
66035;HTU21D;52805;51.074;5.842;2023-11-21T06:49:52;10.68;118.99
66035;HTU21D;52805;51.074;5.842;2023-11-21T06:52:20;10.71;118.99
66035;HTU21D;52805;51.074;5.842;2023-11-21T06:54:47;10.72;118.99
66035;HTU21D;52805;51.074;5.842;2023-11-21T06:57:15;10.74;118.99
66035;HTU21D;52805;51.074;5.842;2023-11-21T06:59:40;10.75;118.99
66035;HTU21D;52805;51.074;5.842;2023-11-21T07:02:09;10.79;118.99
66035;HTU21D;52805;51.074;5.842;2023-11-21T07:04:35;10.79;118.99
66035;HTU21D;52805;51.074;5.842;2023-11-21T07:07:03;10.82;118.99
66035;HTU21D;52805;51.074;5.842;2023-11-21T07:09:29;10.81;118.99
66035;HTU21D;52805;51.074;5.842;2023-11-21T07:11:55;10.82;118.99
66035;HTU21D;52805;51.074;5.842;2023-11-21T07:14:21;10.83;118.99
66035;HTU21D;52805;51.074;5.842;2023-11-21T07:16:47;10.84;118.99
66035;HTU21D;52805;51.074;5.842;2023-11-21T07:19:13;10.83;118.99
66035;HTU21D;52805;51.074;5.842;2023-11-21T07:21:40;10.85;118.99
66035;HTU21D;52805;51.074;5.842;2023-11-21T07:24:07;10.86;118.99
66035;HTU21D;52805;51.074;5.842;2023-11-21T07:26:34;10.87;118.99
66035;HTU21D;52805;51.074;5.842;2023-11-21T07:29:01;10.88;118.99
66035;HTU21D;52805;51.074;5.842;2023-11-21T07:31:28;10.88;118.99
66035;HTU21D;52805;51.074;5.842;2023-11-21T07:33:55;10.88;118.99
66035;HTU21D;52805;51.074;5.842;2023-11-21T07:36:24;10.89;118.99
66035;HTU21D;52805;51.074;5.842;2023-11-21T07:38:50;10.88;118.99
66035;HTU21D;52805;51.074;5.842;2023-11-21T07:41:17;10.89;118.99
66035;HTU21D;52805;51.074;5.842;2023-11-21T07:43:46;10.90;118.99
66035;HTU21D;52805;51.074;5.842;2023-11-21T07:46:12;10.93;118.99
66035;HTU21D;52805;51.074;5.842;2023-11-21T07:48:40;10.95;118.99
66035;HTU21D;52805;51.074;5.842;2023-11-21T07:51:06;10.96;118.99
66035;HTU21D;52805;51.074;5.842;2023-11-21T07:53:32;10.97;118.99
66035;HTU21D;52805;51.074;5.842;2023-11-21T07:56:02;10.96;118.99
66035;HTU21D;52805;51.074;5.842;2023-11-21T07:58:28;10.96;118.99
66035;HTU21D;52805;51.074;5.842;2023-11-21T08:00:54;10.96;118.99
66035;HTU21D;52805;51.074;5.842;2023-11-21T08:03:19;10.97;118.99
66035;HTU21D;52805;51.074;5.842;2023-11-21T08:05:46;10.97;118.99
66035;HTU21D;52805;51.074;5.842;2023-11-21T08:08:12;10.98;118.99
66035;HTU21D;52805;51.074;5.842;2023-11-21T08:10:38;11.00;118.99
66035;HTU21D;52805;51.074;5.842;2023-11-21T08:13:05;11.00;118.99
66035;HTU21D;52805;51.074;5.842;2023-11-21T08:15:30;11.03;118.99
66035;HTU21D;52805;51.074;5.842;2023-11-21T08:17:59;11.01;118.99
66035;HTU21D;52805;51.074;5.842;2023-11-21T08:20:25;11.01;118.99
66035;HTU21D;52805;51.074;5.842;2023-11-21T08:22:51;11.04;118.99
66035;HTU21D;52805;51.074;5.842;2023-11-21T08:25:18;11.03;118.99
66035;HTU21D;52805;51.074;5.842;2023-11-21T08:27:46;11.05;118.99
66035;HTU21D;52805;51.074;5.842;2023-11-21T08:30:12;11.08;118.99
66035;HTU21D;52805;51.074;5.842;2023-11-21T08:32:39;11.10;118.99
66035;HTU21D;52805;51.074;5.842;2023-11-21T08:35:07;11.14;118.99
66035;HTU21D;52805;51.074;5.842;2023-11-21T08:37:33;11.13;118.99
66035;HTU21D;52805;51.074;5.842;2023-11-21T08:40:04;11.16;118.99
66035;HTU21D;52805;51.074;5.842;2023-11-21T08:42:34;11.18;118.99
66035;HTU21D;52805;51.074;5.842;2023-11-21T08:44:59;11.24;118.99
66035;HTU21D;52805;51.074;5.842;2023-11-21T08:47:25;11.24;118.99
66035;HTU21D;52805;51.074;5.842;2023-11-21T08:49:52;11.25;118.99
66035;HTU21D;52805;51.074;5.842;2023-11-21T08:52:19;11.26;118.99
66035;HTU21D;52805;51.074;5.842;2023-11-21T08:54:51;11.26;118.99
66035;HTU21D;52805;51.074;5.842;2023-11-21T08:57:25;11.27;118.99
66035;HTU21D;52805;51.074;5.842;2023-11-21T08:59:50;11.28;118.99
66035;HTU21D;52805;51.074;5.842;2023-11-21T09:02:21;11.28;118.99
66035;HTU21D;52805;51.074;5.842;2023-11-21T09:04:49;11.29;118.99
66035;HTU21D;52805;51.074;5.842;2023-11-21T09:07:16;11.32;118.99
66035;HTU21D;52805;51.074;5.842;2023-11-21T09:09:41;11.33;118.99
66035;HTU21D;52805;51.074;5.842;2023-11-21T09:12:07;11.33;118.99
66035;HTU21D;52805;51.074;5.842;2023-11-21T09:14:36;11.38;118.99
66035;HTU21D;52805;51.074;5.842;2023-11-21T09:17:02;11.39;118.99
66035;HTU21D;52805;51.074;5.842;2023-11-21T09:19:30;11.43;118.99
66035;HTU21D;52805;51.074;5.842;2023-11-21T09:21:56;11.45;118.99
66035;HTU21D;52805;51.074;5.842;2023-11-21T09:24:22;11.49;118.99
66035;HTU21D;52805;51.074;5.842;2023-11-21T09:26:48;11.54;118.99
66035;HTU21D;52805;51.074;5.842;2023-11-21T09:29:13;11.57;118.99
66035;HTU21D;52805;51.074;5.842;2023-11-21T09:31:39;11.60;118.99
66035;HTU21D;52805;51.074;5.842;2023-11-21T09:34:05;11.64;118.99
66035;HTU21D;52805;51.074;5.842;2023-11-21T09:36:31;11.67;118.99
66035;HTU21D;52805;51.074;5.842;2023-11-21T09:38:58;11.69;118.99
66035;HTU21D;52805;51.074;5.842;2023-11-21T09:41:37;11.71;118.99
66035;HTU21D;52805;51.074;5.842;2023-11-21T09:44:09;11.70;118.99
66035;HTU21D;52805;51.074;5.842;2023-11-21T09:46:42;11.73;118.99
66035;HTU21D;52805;51.074;5.842;2023-11-21T09:49:11;11.70;118.99
66035;HTU21D;52805;51.074;5.842;2023-11-21T09:51:46;11.69;118.99
66035;HTU21D;52805;51.074;5.842;2023-11-21T09:54:15;11.69;118.99
66035;HTU21D;52805;51.074;5.842;2023-11-21T09:56:42;11.70;118.99
66035;HTU21D;52805;51.074;5.842;2023-11-21T09:59:14;11.74;118.99
66035;HTU21D;52805;51.074;5.842;2023-11-21T10:01:42;11.76;118.99
66035;HTU21D;52805;51.074;5.842;2023-11-21T10:04:11;11.75;118.99
66035;HTU21D;52805;51.074;5.842;2023-11-21T10:06:41;11.79;118.99
66035;HTU21D;52805;51.074;5.842;2023-11-21T10:09:10;11.79;118.99
66035;HTU21D;52805;51.074;5.842;2023-11-21T10:11:41;11.83;118.99
66035;HTU21D;52805;51.074;5.842;2023-11-21T10:14:11;11.83;118.99
66035;HTU21D;52805;51.074;5.842;2023-11-21T10:16:41;11.82;118.99
66035;HTU21D;52805;51.074;5.842;2023-11-21T10:19:10;11.79;118.99
66035;HTU21D;52805;51.074;5.842;2023-11-21T10:21:42;11.78;118.99
66035;HTU21D;52805;51.074;5.842;2023-11-21T10:24:08;11.79;118.99
66035;HTU21D;52805;51.074;5.842;2023-11-21T10:26:34;11.83;118.99
66035;HTU21D;52805;51.074;5.842;2023-11-21T10:29:02;11.85;118.99
66035;HTU21D;52805;51.074;5.842;2023-11-21T10:31:30;11.88;118.99
66035;HTU21D;52805;51.074;5.842;2023-11-21T10:34:19;11.88;118.99
66035;HTU21D;52805;51.074;5.842;2023-11-21T10:36:46;11.87;118.99
66035;HTU21D;52805;51.074;5.842;2023-11-21T10:39:17;11.88;118.99
66035;HTU21D;52805;51.074;5.842;2023-11-21T10:41:44;11.89;118.99
66035;HTU21D;52805;51.074;5.842;2023-11-21T10:44:14;11.90;118.99
66035;HTU21D;52805;51.074;5.842;2023-11-21T10:46:45;11.91;118.99
66035;HTU21D;52805;51.074;5.842;2023-11-21T10:49:17;11.91;118.99
66035;HTU21D;52805;51.074;5.842;2023-11-21T10:51:43;11.94;118.99
66035;HTU21D;52805;51.074;5.842;2023-11-21T10:54:09;11.96;118.99
66035;HTU21D;52805;51.074;5.842;2023-11-21T10:56:36;11.93;118.99
66035;HTU21D;52805;51.074;5.842;2023-11-21T10:59:09;11.96;118.99
66035;HTU21D;52805;51.074;5.842;2023-11-21T11:01:45;12.03;118.99
66035;HTU21D;52805;51.074;5.842;2023-11-21T11:04:12;12.04;118.99
66035;HTU21D;52805;51.074;5.842;2023-11-21T11:07:05;12.11;118.99
66035;HTU21D;52805;51.074;5.842;2023-11-21T11:09:35;12.18;118.99
66035;HTU21D;52805;51.074;5.842;2023-11-21T11:12:03;12.22;118.99
66035;HTU21D;52805;51.074;5.842;2023-11-21T11:14:32;12.28;118.99
66035;HTU21D;52805;51.074;5.842;2023-11-21T11:16:59;12.34;118.99
66035;HTU21D;52805;51.074;5.842;2023-11-21T11:19:27;12.35;118.99
66035;HTU21D;52805;51.074;5.842;2023-11-21T11:38:49;12.38;118.99
66035;HTU21D;52805;51.074;5.842;2023-11-21T11:41:33;12.36;118.99
66035;HTU21D;52805;51.074;5.842;2023-11-21T11:44:01;12.36;118.99
66035;HTU21D;52805;51.074;5.842;2023-11-21T11:46:44;12.38;118.99
66035;HTU21D;52805;51.074;5.842;2023-11-21T11:49:27;12.34;118.99
66035;HTU21D;52805;51.074;5.842;2023-11-21T11:54:56;12.33;118.99
66035;HTU21D;52805;51.074;5.842;2023-11-21T11:57:26;12.31;118.99
66035;HTU21D;52805;51.074;5.842;2023-11-21T12:00:08;12.32;118.99
66035;HTU21D;52805;51.074;5.842;2023-11-21T12:02:56;12.35;118.99
66035;HTU21D;52805;51.074;5.842;2023-11-21T12:05:26;12.37;118.99
66035;HTU21D;52805;51.074;5.842;2023-11-21T12:07:59;12.42;118.99
66035;HTU21D;52805;51.074;5.842;2023-11-21T12:10:31;12.45;118.99
66035;HTU21D;52805;51.074;5.842;2023-11-21T12:13:16;12.47;118.99
66035;HTU21D;52805;51.074;5.842;2023-11-21T12:15:42;12.49;118.99
66035;HTU21D;52805;51.074;5.842;2023-11-21T12:18:08;12.51;118.99
66035;HTU21D;52805;51.074;5.842;2023-11-21T12:20:33;12.53;118.99
66035;HTU21D;52805;51.074;5.842;2023-11-21T12:23:05;12.55;118.99
66035;HTU21D;52805;51.074;5.842;2023-11-21T12:25:31;12.56;118.99
66035;HTU21D;52805;51.074;5.842;2023-11-21T12:28:00;12.58;118.99
66035;HTU21D;52805;51.074;5.842;2023-11-21T12:30:28;12.60;118.99
66035;HTU21D;52805;51.074;5.842;2023-11-21T12:32:57;12.61;118.99
66035;HTU21D;52805;51.074;5.842;2023-11-21T12:35:28;12.61;118.99
66035;HTU21D;52805;51.074;5.842;2023-11-21T12:37:55;12.62;118.99
66035;HTU21D;52805;51.074;5.842;2023-11-21T12:40:23;12.63;118.99
66035;HTU21D;52805;51.074;5.842;2023-11-21T12:42:51;12.63;118.99
66035;HTU21D;52805;51.074;5.842;2023-11-21T12:45:23;12.67;118.99
66035;HTU21D;52805;51.074;5.842;2023-11-21T12:48:00;12.72;118.99
66035;HTU21D;52805;51.074;5.842;2023-11-21T12:50:30;12.75;118.99
66035;HTU21D;52805;51.074;5.842;2023-11-21T12:53:01;12.74;118.99
66035;HTU21D;52805;51.074;5.842;2023-11-21T12:55:34;12.71;118.99
66035;HTU21D;52805;51.074;5.842;2023-11-21T12:58:04;12.64;118.99
66035;HTU21D;52805;51.074;5.842;2023-11-21T13:00:47;12.57;118.99
66035;HTU21D;52805;51.074;5.842;2023-11-21T13:03:15;12.50;118.99
66035;HTU21D;52805;51.074;5.842;2023-11-21T13:05:47;12.44;118.99
66035;HTU21D;52805;51.074;5.842;2023-11-21T13:08:17;12.38;118.99
66035;HTU21D;52805;51.074;5.842;2023-11-21T13:10:56;12.34;118.99
66035;HTU21D;52805;51.074;5.842;2023-11-21T13:13:23;12.33;118.99
66035;HTU21D;52805;51.074;5.842;2023-11-21T13:15:52;12.31;118.99
66035;HTU21D;52805;51.074;5.842;2023-11-21T13:18:19;12.32;118.99
66035;HTU21D;52805;51.074;5.842;2023-11-21T13:20:47;12.32;118.99
66035;HTU21D;52805;51.074;5.842;2023-11-21T13:23:12;12.32;118.99
66035;HTU21D;52805;51.074;5.842;2023-11-21T13:25:39;12.34;118.99
66035;HTU21D;52805;51.074;5.842;2023-11-21T13:28:07;12.35;118.99
66035;HTU21D;52805;51.074;5.842;2023-11-21T13:30:35;12.37;118.99
66035;HTU21D;52805;51.074;5.842;2023-11-21T13:33:02;12.38;118.99
66035;HTU21D;52805;51.074;5.842;2023-11-21T13:35:31;12.38;118.99
66035;HTU21D;52805;51.074;5.842;2023-11-21T13:38:10;12.35;118.99
66035;HTU21D;52805;51.074;5.842;2023-11-21T13:40:38;12.33;118.99
66035;HTU21D;52805;51.074;5.842;2023-11-21T13:43:16;12.34;118.99
66035;HTU21D;52805;51.074;5.842;2023-11-21T13:45:44;12.33;118.99
66035;HTU21D;52805;51.074;5.842;2023-11-21T13:48:12;12.35;118.99
66035;HTU21D;52805;51.074;5.842;2023-11-21T13:50:51;12.37;118.99
66035;HTU21D;52805;51.074;5.842;2023-11-21T13:53:36;12.40;118.99
66035;HTU21D;52805;51.074;5.842;2023-11-21T13:56:07;12.42;118.99
66035;HTU21D;52805;51.074;5.842;2023-11-21T13:58:33;12.37;118.99
66035;HTU21D;52805;51.074;5.842;2023-11-21T14:01:16;12.34;118.99
66035;HTU21D;52805;51.074;5.842;2023-11-21T14:04:04;12.30;118.99
66035;HTU21D;52805;51.074;5.842;2023-11-21T14:06:49;12.27;118.99
66035;HTU21D;52805;51.074;5.842;2023-11-21T14:09:20;12.23;118.99
66035;HTU21D;52805;51.074;5.842;2023-11-21T14:11:58;12.21;118.99
66035;HTU21D;52805;51.074;5.842;2023-11-21T14:14:27;12.16;118.99
66035;HTU21D;52805;51.074;5.842;2023-11-21T14:16:54;12.15;118.99
66035;HTU21D;52805;51.074;5.842;2023-11-21T14:19:21;12.13;118.99
66035;HTU21D;52805;51.074;5.842;2023-11-21T14:21:47;12.07;118.99
66035;HTU21D;52805;51.074;5.842;2023-11-21T14:24:16;12.07;118.99
66035;HTU21D;52805;51.074;5.842;2023-11-21T14:26:45;12.04;118.99
66035;HTU21D;52805;51.074;5.842;2023-11-21T14:29:16;12.03;118.99
66035;HTU21D;52805;51.074;5.842;2023-11-21T14:31:48;12.01;118.99
66035;HTU21D;52805;51.074;5.842;2023-11-21T14:34:15;12.00;118.99
66035;HTU21D;52805;51.074;5.842;2023-11-21T14:36:41;12.01;118.99
66035;HTU21D;52805;51.074;5.842;2023-11-21T14:39:08;12.01;118.99
66035;HTU21D;52805;51.074;5.842;2023-11-21T14:41:41;12.02;118.99
66035;HTU21D;52805;51.074;5.842;2023-11-21T14:44:08;12.04;118.99
66035;HTU21D;52805;51.074;5.842;2023-11-21T14:46:38;12.06;118.99
66035;HTU21D;52805;51.074;5.842;2023-11-21T14:49:05;12.08;118.99
66035;HTU21D;52805;51.074;5.842;2023-11-21T14:51:49;12.12;118.99
66035;HTU21D;52805;51.074;5.842;2023-11-21T14:54:33;12.13;118.99
66035;HTU21D;52805;51.074;5.842;2023-11-21T14:57:23;12.13;118.99
66035;HTU21D;52805;51.074;5.842;2023-11-21T14:59:50;12.12;118.99
66035;HTU21D;52805;51.074;5.842;2023-11-21T15:02:23;12.13;118.99
66035;HTU21D;52805;51.074;5.842;2023-11-21T15:05:08;12.04;118.99
66035;HTU21D;52805;51.074;5.842;2023-11-21T15:07:40;11.99;118.99
66035;HTU21D;52805;51.074;5.842;2023-11-21T15:10:07;11.93;118.99
66035;HTU21D;52805;51.074;5.842;2023-11-21T15:12:40;11.93;118.99
66035;HTU21D;52805;51.074;5.842;2023-11-21T15:15:06;11.97;118.99
66035;HTU21D;52805;51.074;5.842;2023-11-21T15:17:35;12.00;118.99
66035;HTU21D;52805;51.074;5.842;2023-11-21T15:20:03;12.01;118.99
66035;HTU21D;52805;51.074;5.842;2023-11-21T15:22:29;12.00;118.99
66035;HTU21D;52805;51.074;5.842;2023-11-21T15:24:55;12.01;118.99
66035;HTU21D;52805;51.074;5.842;2023-11-21T15:27:21;11.98;118.99
66035;HTU21D;52805;51.074;5.842;2023-11-21T15:29:47;11.94;118.99